createdAt,value
2022-10-13T00:00:29.565Z,24.19
2022-10-13T00:03:02.913Z,24.17
2022-10-13T00:05:34.849Z,24.14
2022-10-13T00:08:03.140Z,24.13
2022-10-13T00:10:31.103Z,24.07
2022-10-13T00:13:05.086Z,24.12
2022-10-13T00:15:32.766Z,23.94
2022-10-13T00:18:00.212Z,23.77
2022-10-13T00:20:30.244Z,23.74
2022-10-13T00:23:01.469Z,23.68
2022-10-13T00:25:29.284Z,23.63
2022-10-13T00:28:00.753Z,23.62
2022-10-13T00:30:40.961Z,23.77
2022-10-13T00:33:09.561Z,23.82
2022-10-13T00:35:51.167Z,23.84
2022-10-13T00:38:22.269Z,23.92
2022-10-13T00:41:06.436Z,23.87
2022-10-13T00:44:08.932Z,23.93
2022-10-13T00:46:40.183Z,23.94
2022-10-13T00:49:17.600Z,23.81
2022-10-13T00:51:50.380Z,23.90
2022-10-13T00:54:25.902Z,23.82
2022-10-13T00:57:00.256Z,23.80
2022-10-13T01:02:39.992Z,23.84
2022-10-13T01:05:09.954Z,23.77
2022-10-13T01:07:50.068Z,23.76
2022-10-13T01:10:51.336Z,23.71
2022-10-13T01:13:43.881Z,23.72
2022-10-13T01:16:41.881Z,23.64
2022-10-13T01:19:58.927Z,23.68
2022-10-13T01:23:05.252Z,23.63
2022-10-13T01:25:49.174Z,23.54
2022-10-13T01:28:41.411Z,23.66
2022-10-13T01:31:28.439Z,23.67
2022-10-13T01:34:07.068Z,23.66
2022-10-13T01:37:28.304Z,23.72
2022-10-13T01:40:24.418Z,23.74
2022-10-13T01:43:32.296Z,23.61
2022-10-13T01:46:21.998Z,23.67
2022-10-13T01:48:52.909Z,23.67
2022-10-13T01:51:40.818Z,23.64
2022-10-13T01:54:24.956Z,23.59
2022-10-13T01:57:11.738Z,23.60
2022-10-13T02:00:05.226Z,23.55
2022-10-13T02:03:10.267Z,23.62
2022-10-13T02:05:50.432Z,23.54
2022-10-13T02:09:03.777Z,23.42
2022-10-13T02:11:43.914Z,23.38
2022-10-13T02:14:32.279Z,23.45
2022-10-13T02:17:11.923Z,23.35
2022-10-13T02:19:54.291Z,23.33
2022-10-13T02:22:31.192Z,23.24
2022-10-13T02:25:05.323Z,23.23
2022-10-13T02:27:32.844Z,23.22
2022-10-13T02:30:03.422Z,23.18
2022-10-13T02:32:34.261Z,23.26
2022-10-13T02:35:03.967Z,23.29
2022-10-13T02:37:34.565Z,23.24
2022-10-13T02:40:06.590Z,23.25
2022-10-13T02:42:34.603Z,23.25
2022-10-13T02:45:13.913Z,23.27
2022-10-13T02:47:47.898Z,23.27
2022-10-13T02:50:21.013Z,23.32
2022-10-13T02:52:54.206Z,23.36
2022-10-13T02:55:22.262Z,23.34
2022-10-13T02:58:15.982Z,23.35
2022-10-13T03:01:15.273Z,23.37
2022-10-13T03:03:49.301Z,23.36
2022-10-13T03:06:22.677Z,23.40
2022-10-13T03:08:55.691Z,23.35
2022-10-13T03:11:34.600Z,23.36
2022-10-13T03:14:07.399Z,23.40
2022-10-13T03:16:50.896Z,23.35
2022-10-13T03:19:26.023Z,23.27
2022-10-13T03:21:53.274Z,23.38
2022-10-13T03:24:41.461Z,23.35
2022-10-13T03:27:16.541Z,23.40
2022-10-13T03:29:51.173Z,23.42
2022-10-13T03:32:30.379Z,23.43
2022-10-13T03:35:07.844Z,23.31
2022-10-13T03:37:35.399Z,23.37
2022-10-13T03:40:05.642Z,23.36
2022-10-13T03:42:40.128Z,23.37
2022-10-13T03:45:07.912Z,23.32
2022-10-13T03:47:39.340Z,23.33
2022-10-13T03:50:10.398Z,23.26
2022-10-13T03:52:38.308Z,23.25
2022-10-13T03:55:06.013Z,23.20
2022-10-13T03:57:40.045Z,23.10
2022-10-13T04:00:14.074Z,23.07
2022-10-13T04:02:53.739Z,23.03
2022-10-13T04:05:26.491Z,22.87
2022-10-13T04:08:01.254Z,22.94
2022-10-13T04:10:31.221Z,22.89
2022-10-13T04:13:09.058Z,22.89
2022-10-13T04:15:49.272Z,22.85
2022-10-13T04:18:16.727Z,22.90
2022-10-13T04:20:51.002Z,22.81
2022-10-13T04:23:20.886Z,22.86
2022-10-13T04:26:01.015Z,22.84
2022-10-13T04:28:38.382Z,22.73
2022-10-13T04:31:09.132Z,22.72
2022-10-13T04:33:39.421Z,22.65
2022-10-13T04:36:16.030Z,22.61
2022-10-13T04:38:47.287Z,22.60
2022-10-13T04:41:16.901Z,22.65
2022-10-13T04:43:47.568Z,22.66
2022-10-13T04:46:24.258Z,22.60
2022-10-13T04:49:01.866Z,22.61
2022-10-13T04:51:36.552Z,22.60
2022-10-13T04:54:10.767Z,22.58
2022-10-13T04:56:49.866Z,22.63
2022-10-13T04:59:26.662Z,22.63
2022-10-13T05:01:57.622Z,22.64
2022-10-13T05:04:33.331Z,22.65
2022-10-13T05:07:17.589Z,22.65
2022-10-13T05:09:53.592Z,22.71
2022-10-13T05:12:27.158Z,22.71
2022-10-13T05:14:58.247Z,22.62
2022-10-13T05:17:35.530Z,22.59
2022-10-13T05:20:14.871Z,22.61
2022-10-13T05:22:44.808Z,22.55
2022-10-13T05:25:15.982Z,22.71
2022-10-13T05:27:46.537Z,22.66
2022-10-13T05:30:17.355Z,22.63
2022-10-13T05:32:53.953Z,22.51
2022-10-13T05:35:27.303Z,22.54
2022-10-13T05:37:57.287Z,22.55
2022-10-13T05:40:31.653Z,22.53
2022-10-13T05:43:01.159Z,22.50
2022-10-13T05:45:33.319Z,22.60
2022-10-13T05:48:01.557Z,22.52
2022-10-13T05:50:31.278Z,22.51
2022-10-13T05:53:01.765Z,22.42
2022-10-13T05:55:32.166Z,22.39
2022-10-13T05:57:59.479Z,22.45
2022-10-13T06:00:28.131Z,22.52
2022-10-13T06:03:25.078Z,22.43
2022-10-13T06:06:10.427Z,22.44
2022-10-13T06:08:39.444Z,22.40
2022-10-13T06:11:21.938Z,22.46
2022-10-13T06:13:51.789Z,22.38
2022-10-13T06:18:47.372Z,22.44
2022-10-13T06:21:17.665Z,22.48
2022-10-13T06:23:45.093Z,22.53
2022-10-13T06:26:15.290Z,22.42
2022-10-13T06:28:50.451Z,22.51
2022-10-13T06:31:21.520Z,22.40
2022-10-13T06:33:50.119Z,22.29
2022-10-13T06:36:20.956Z,22.50
2022-10-13T06:38:48.095Z,22.41
2022-10-13T06:41:23.985Z,22.46
2022-10-13T06:43:58.044Z,22.57
2022-10-13T06:46:31.540Z,22.60
2022-10-13T06:48:59.657Z,22.65
2022-10-13T06:51:34.873Z,22.53
2022-10-13T06:54:08.716Z,22.48
2022-10-13T06:56:37.386Z,22.44
2022-10-13T06:59:10.861Z,22.64
2022-10-13T07:01:43.027Z,22.71
2022-10-13T07:04:13.260Z,22.68
2022-10-13T07:06:44.086Z,22.70
2022-10-13T07:09:12.364Z,22.61
2022-10-13T07:11:39.541Z,22.67
2022-10-13T07:14:07.072Z,22.62
2022-10-13T07:16:34.522Z,22.73
2022-10-13T07:19:02.281Z,22.68
2022-10-13T07:21:31.430Z,22.72
2022-10-13T07:24:06.683Z,22.70
2022-10-13T07:26:37.846Z,22.80
2022-10-13T07:29:05.645Z,22.85
2022-10-13T07:31:32.910Z,22.88
2022-10-13T07:34:01.666Z,23.00
2022-10-13T07:36:30.389Z,23.00
2022-10-13T07:39:04.799Z,23.03
2022-10-13T07:41:38.361Z,23.16
2022-10-13T07:44:08.899Z,23.16
2022-10-13T07:46:38.518Z,23.32
2022-10-13T07:49:06.099Z,23.40
2022-10-13T07:51:35.941Z,23.50
2022-10-13T07:54:03.683Z,23.59
2022-10-13T07:56:35.776Z,23.73
2022-10-13T07:59:09.891Z,23.82
2022-10-13T08:01:41.394Z,24.11
2022-10-13T08:04:14.207Z,24.39
2022-10-13T08:06:45.402Z,24.69
2022-10-13T08:09:21.231Z,25.04
2022-10-13T08:11:48.963Z,25.32
2022-10-13T08:14:16.478Z,25.65
2022-10-13T08:16:49.919Z,25.95
2022-10-13T08:19:26.742Z,26.18
2022-10-13T08:21:59.522Z,26.46
2022-10-13T08:24:33.925Z,26.71
2022-10-13T08:27:04.848Z,26.90
2022-10-13T08:29:37.436Z,27.07
2022-10-13T08:32:05.030Z,27.27
2022-10-13T08:34:34.946Z,27.55
2022-10-13T08:37:05.107Z,27.81
2022-10-13T08:39:43.274Z,27.98
2022-10-13T08:42:19.003Z,28.27
2022-10-13T08:48:05.114Z,28.66
2022-10-13T08:50:38.506Z,28.85
2022-10-13T08:53:21.330Z,28.93
2022-10-13T08:55:59.059Z,29.23
2022-10-13T08:58:41.698Z,28.82
2022-10-13T09:01:18.880Z,28.57
2022-10-13T09:04:26.870Z,28.74
2022-10-13T09:07:12.192Z,28.50
2022-10-13T09:09:42.266Z,28.54
2022-10-13T09:12:12.898Z,28.00
2022-10-13T09:14:59.323Z,27.96
2022-10-13T09:20:20.855Z,28.28
2022-10-13T09:23:17.815Z,28.32
2022-10-13T09:25:50.892Z,28.48
2022-10-13T09:28:28.023Z,28.35
2022-10-13T09:31:11.703Z,28.51
2022-10-13T09:33:41.877Z,27.83
2022-10-13T09:36:12.109Z,27.94
2022-10-13T09:38:44.943Z,27.92
2022-10-13T09:41:15.256Z,28.07
2022-10-13T09:43:51.322Z,27.91
2022-10-13T09:46:47.135Z,27.86
2022-10-13T09:49:44.841Z,27.78
2022-10-13T09:52:23.115Z,27.77
2022-10-13T09:55:03.280Z,27.37
2022-10-13T09:57:55.730Z,27.73
2022-10-13T10:00:30.366Z,28.07
2022-10-13T10:03:23.868Z,28.42
2022-10-13T10:06:16.463Z,29.18
2022-10-13T10:09:12.441Z,29.23
2022-10-13T10:11:52.136Z,29.69
2022-10-13T10:14:33.579Z,30.01
2022-10-13T10:17:16.703Z,30.07
2022-10-13T10:19:52.346Z,29.80
2022-10-13T10:22:37.759Z,30.28
2022-10-13T10:25:38.131Z,29.76
2022-10-13T10:28:13.437Z,30.67
2022-10-13T10:31:14.273Z,30.42
2022-10-13T10:34:29.344Z,31.12
2022-10-13T10:37:35.591Z,31.32
2022-10-13T10:40:18.420Z,30.86
2022-10-13T10:43:24.848Z,31.59
2022-10-13T10:46:01.542Z,31.97
2022-10-13T10:48:39.238Z,31.65
2022-10-13T10:51:16.677Z,31.67
2022-10-13T10:53:58.257Z,31.89
2022-10-13T10:56:46.391Z,32.17
2022-10-13T10:59:35.269Z,31.65
2022-10-13T11:02:22.269Z,32.06
2022-10-13T11:05:06.081Z,31.80
2022-10-13T11:07:47.647Z,32.42
2022-10-13T11:10:30.013Z,31.45
2022-10-13T11:13:17.277Z,32.15
2022-10-13T11:15:52.237Z,32.69
2022-10-13T11:19:20.258Z,32.57
2022-10-13T11:22:10.435Z,32.92
2022-10-13T11:24:39.273Z,32.83
2022-10-13T11:27:42.079Z,32.56
2022-10-13T11:30:54.641Z,32.53
2022-10-13T11:33:40.328Z,33.06
2022-10-13T11:36:48.601Z,32.82
2022-10-13T11:39:28.468Z,33.02
2022-10-13T11:42:21.949Z,33.24
2022-10-13T11:45:00.578Z,34.02
2022-10-13T11:48:01.768Z,33.89
2022-10-13T11:50:53.619Z,33.36
2022-10-13T11:53:48.021Z,33.26
2022-10-13T11:56:48.464Z,33.44
2022-10-13T11:59:40.344Z,33.62
2022-10-13T12:02:10.489Z,33.43
2022-10-13T12:04:46.560Z,32.97
2022-10-13T12:07:22.183Z,33.58
2022-10-13T12:09:55.220Z,33.87
2022-10-13T12:12:34.376Z,33.52
2022-10-13T12:15:30.546Z,33.61
2022-10-13T12:18:02.703Z,33.19
2022-10-13T12:20:33.389Z,33.50
2022-10-13T12:23:05.503Z,33.17
2022-10-13T12:25:42.931Z,33.90
2022-10-13T12:28:23.524Z,33.50
2022-10-13T12:30:54.271Z,33.56
2022-10-13T12:33:34.881Z,34.05
2022-10-13T12:36:19.436Z,34.08
2022-10-13T12:38:55.658Z,34.39
2022-10-13T12:41:32.893Z,34.34
2022-10-13T12:44:08.339Z,33.82
2022-10-13T12:46:56.741Z,33.99
2022-10-13T12:49:30.282Z,33.75
2022-10-13T12:52:12.520Z,33.44
2022-10-13T12:54:52.838Z,33.49
2022-10-13T12:57:41.916Z,33.71
2022-10-13T13:00:27.347Z,33.22
2022-10-13T13:03:07.829Z,33.62
2022-10-13T13:05:52.937Z,33.27
2022-10-13T13:08:35.335Z,33.84
2022-10-13T13:11:07.559Z,33.86
2022-10-13T13:13:39.210Z,33.48
2022-10-13T13:16:19.344Z,33.45
2022-10-13T13:18:49.918Z,33.98
2022-10-13T13:21:20.515Z,33.74
2022-10-13T13:23:53.733Z,33.36
2022-10-13T13:26:24.507Z,32.25
2022-10-13T13:29:00.809Z,32.20
2022-10-13T13:31:41.015Z,32.68
2022-10-13T13:34:08.948Z,33.53
2022-10-13T13:36:40.743Z,33.49
2022-10-13T13:39:19.697Z,33.85
2022-10-13T13:41:47.730Z,33.91
2022-10-13T13:44:18.475Z,33.40
2022-10-13T13:46:48.953Z,33.19
2022-10-13T13:49:19.847Z,33.34
2022-10-13T13:51:50.733Z,33.16
2022-10-13T13:54:22.733Z,33.68
2022-10-13T13:56:58.599Z,33.82
2022-10-13T13:59:27.323Z,33.31
2022-10-13T14:01:58.019Z,33.82
2022-10-13T14:04:30.586Z,33.32
2022-10-13T14:07:01.168Z,33.89
2022-10-13T14:09:31.845Z,34.19
2022-10-13T14:12:04.352Z,33.19
2022-10-13T14:14:39.583Z,33.80
2022-10-13T14:17:13.111Z,33.33
2022-10-13T14:19:55.110Z,33.29
2022-10-13T14:22:42.449Z,33.20
2022-10-13T14:25:31.122Z,32.51
2022-10-13T14:28:12.555Z,32.06
2022-10-13T14:31:10.227Z,31.77
2022-10-13T14:33:39.228Z,31.28
2022-10-13T14:39:12.441Z,30.30
2022-10-13T14:41:48.131Z,29.92
2022-10-13T14:44:22.123Z,29.75
2022-10-13T14:46:56.044Z,29.81
2022-10-13T14:49:34.128Z,29.52
2022-10-13T14:52:07.348Z,29.48
2022-10-13T14:55:07.911Z,29.80
2022-10-13T14:57:41.180Z,29.83
2022-10-13T15:00:31.112Z,30.02
2022-10-13T15:03:22.615Z,30.05
2022-10-13T15:06:11.595Z,29.94
2022-10-13T15:09:03.465Z,30.08
2022-10-13T15:11:52.645Z,29.92
2022-10-13T15:14:41.948Z,30.11
2022-10-13T15:17:32.334Z,30.38
2022-10-13T15:20:22.724Z,30.42
2022-10-13T15:22:57.125Z,30.16
2022-10-13T15:25:24.838Z,30.11
2022-10-13T15:28:01.180Z,30.21
2022-10-13T15:30:39.238Z,29.44
2022-10-13T15:33:23.352Z,29.46
2022-10-13T15:36:08.829Z,29.61
2022-10-13T15:39:09.863Z,28.99
2022-10-13T15:41:42.050Z,29.26
2022-10-13T15:44:09.773Z,29.36
2022-10-13T15:47:06.641Z,29.22
2022-10-13T15:49:41.626Z,28.80
2022-10-13T15:52:20.548Z,28.71
2022-10-13T15:54:57.135Z,28.73
2022-10-13T15:57:31.349Z,28.58
2022-10-13T16:03:18.643Z,28.43
2022-10-13T16:06:09.063Z,28.30
2022-10-13T16:09:03.168Z,28.30
2022-10-13T16:11:46.572Z,28.18
2022-10-13T16:14:30.001Z,28.34
2022-10-13T16:17:07.295Z,28.31
2022-10-13T16:20:01.921Z,27.74
2022-10-13T16:22:41.788Z,27.95
2022-10-13T16:25:18.894Z,27.98
2022-10-13T16:28:04.690Z,27.59
2022-10-13T16:30:49.137Z,27.86
2022-10-13T16:33:19.284Z,27.96
2022-10-13T16:35:46.827Z,27.80
2022-10-13T16:38:14.822Z,27.82
2022-10-13T16:40:42.754Z,27.77
2022-10-13T16:43:10.838Z,27.78
2022-10-13T16:45:59.274Z,27.47
2022-10-13T16:48:31.345Z,27.08
2022-10-13T16:51:01.596Z,27.01
2022-10-13T16:53:33.359Z,27.16
2022-10-13T16:56:01.480Z,27.07
2022-10-13T16:58:33.895Z,27.11
2022-10-13T17:01:09.836Z,27.20
2022-10-13T17:03:39.534Z,27.02
2022-10-13T17:06:11.329Z,26.84
2022-10-13T17:08:39.506Z,26.77
2022-10-13T17:11:07.982Z,26.98
2022-10-13T17:13:39.757Z,26.89
2022-10-13T17:16:07.428Z,27.26
2022-10-13T17:18:35.002Z,26.91
2022-10-13T17:21:06.254Z,26.83
2022-10-13T17:23:34.079Z,26.97
2022-10-13T17:26:04.221Z,27.10
2022-10-13T17:28:36.619Z,26.98
2022-10-13T17:31:14.171Z,26.95
2022-10-13T17:33:45.438Z,26.98
2022-10-13T17:36:16.641Z,27.08
2022-10-13T17:38:48.682Z,26.88
2022-10-13T17:41:17.916Z,26.63
2022-10-13T17:43:54.705Z,26.70
2022-10-13T17:46:38.337Z,26.65
2022-10-13T17:49:11.682Z,26.31
2022-10-13T17:51:41.446Z,26.57
2022-10-13T17:54:15.758Z,26.38
2022-10-13T17:56:44.694Z,26.24
2022-10-13T17:59:16.716Z,26.21
2022-10-13T18:01:46.337Z,25.93
2022-10-13T18:04:20.918Z,26.29
2022-10-13T18:06:49.061Z,26.30
2022-10-13T18:09:20.886Z,25.96
2022-10-13T18:11:53.090Z,26.13
2022-10-13T18:14:23.270Z,26.18
2022-10-13T18:16:59.782Z,26.28
2022-10-13T18:19:36.540Z,26.20
2022-10-13T18:22:09.850Z,26.38
2022-10-13T18:24:42.944Z,26.30
2022-10-13T18:27:11.928Z,25.96
2022-10-13T18:29:44.052Z,25.60
2022-10-13T18:32:13.478Z,25.95
2022-10-13T18:34:43.318Z,26.01
2022-10-13T18:37:13.448Z,26.26
2022-10-13T18:39:46.679Z,26.20
2022-10-13T18:42:19.909Z,26.17
2022-10-13T18:44:57.611Z,26.02
2022-10-13T18:47:29.055Z,25.96
2022-10-13T18:49:56.928Z,26.00
2022-10-13T18:52:29.521Z,26.20
2022-10-13T18:55:03.460Z,25.79
2022-10-13T18:58:08.251Z,25.61
2022-10-13T19:00:38.549Z,25.83
2022-10-13T19:03:11.246Z,25.82
2022-10-13T19:05:40.349Z,25.55
2022-10-13T19:08:21.348Z,25.55
2022-10-13T19:10:52.716Z,25.86
2022-10-13T19:13:31.951Z,25.65
2022-10-13T19:16:01.611Z,25.88
2022-10-13T19:18:36.589Z,25.64
2022-10-13T19:21:07.400Z,25.56
2022-10-13T19:23:38.331Z,25.74
2022-10-13T19:26:32.044Z,25.66
2022-10-13T19:29:24.834Z,25.53
2022-10-13T19:31:52.756Z,25.61
2022-10-13T19:37:26.990Z,25.58
2022-10-13T19:39:55.178Z,25.68
2022-10-13T19:42:27.860Z,25.41
2022-10-13T19:45:06.474Z,25.59
2022-10-13T19:47:53.536Z,25.41
2022-10-13T19:50:30.831Z,25.48
2022-10-13T19:52:59.340Z,25.47
2022-10-13T19:55:33.463Z,25.28
2022-10-13T19:58:01.802Z,25.61
2022-10-13T20:00:36.059Z,25.37
2022-10-13T20:03:08.080Z,25.51
2022-10-13T20:05:40.663Z,25.51
2022-10-13T20:08:14.869Z,25.65
2022-10-13T20:10:45.235Z,25.72
2022-10-13T20:13:12.998Z,25.78
2022-10-13T20:15:48.891Z,25.84
2022-10-13T20:18:29.331Z,25.81
2022-10-13T20:21:09.803Z,25.64
2022-10-13T20:23:45.937Z,25.72
2022-10-13T20:29:13.349Z,25.51
2022-10-13T20:31:49.280Z,25.64
2022-10-13T20:34:24.971Z,25.68
2022-10-13T20:37:03.943Z,25.82
2022-10-13T20:39:49.282Z,25.91
2022-10-13T20:42:25.583Z,26.00
2022-10-13T20:44:59.416Z,26.06
2022-10-13T20:47:33.805Z,26.10
2022-10-13T20:50:10.379Z,26.11
2022-10-13T20:52:47.011Z,26.17
2022-10-13T20:55:31.715Z,26.19
2022-10-13T20:58:12.618Z,26.15
2022-10-13T21:01:12.460Z,26.17
2022-10-13T21:03:48.569Z,26.18
2022-10-13T21:06:31.721Z,26.19
2022-10-13T21:09:12.221Z,26.22
2022-10-13T21:11:48.479Z,26.27
2022-10-13T21:14:32.363Z,26.27
2022-10-13T21:17:29.214Z,26.21
2022-10-13T21:20:36.848Z,26.18
2022-10-13T21:23:23.972Z,26.19
2022-10-13T21:26:06.109Z,26.18
2022-10-13T21:28:57.960Z,26.16
2022-10-13T21:31:40.161Z,26.06
2022-10-13T21:34:27.301Z,26.06
2022-10-13T21:37:24.063Z,26.02
2022-10-13T21:40:11.389Z,26.01
2022-10-13T21:42:58.190Z,25.97
2022-10-13T21:45:27.399Z,25.97
2022-10-13T21:48:03.504Z,25.95
2022-10-13T21:50:39.888Z,25.89
2022-10-13T21:53:12.151Z,25.95
2022-10-13T21:55:45.894Z,25.84
2022-10-13T21:58:23.173Z,25.83
2022-10-13T22:01:04.665Z,25.84
2022-10-13T22:03:38.667Z,25.87
2022-10-13T22:06:27.715Z,25.88
2022-10-13T22:09:07.123Z,25.84
2022-10-13T22:11:46.512Z,25.78
2022-10-13T22:14:22.154Z,25.78
2022-10-13T22:17:10.922Z,25.75
2022-10-13T22:19:43.246Z,25.76
2022-10-13T22:22:17.826Z,25.70
2022-10-13T22:24:54.081Z,25.71
2022-10-13T22:27:28.192Z,25.70
2022-10-13T22:29:58.527Z,25.68
2022-10-13T22:32:37.383Z,25.67
2022-10-13T22:35:13.040Z,25.66
2022-10-13T22:37:48.732Z,25.68
2022-10-13T22:40:22.597Z,25.63
2022-10-13T22:42:59.055Z,25.61
2022-10-13T22:45:32.818Z,25.62
2022-10-13T22:48:05.092Z,25.57
2022-10-13T22:50:34.849Z,25.61
2022-10-13T22:55:48.913Z,25.53
2022-10-13T22:58:22.619Z,25.54
2022-10-13T23:00:50.918Z,25.56
2022-10-13T23:03:21.146Z,25.60
2022-10-13T23:05:57.643Z,25.59
2022-10-13T23:08:29.129Z,25.56
2022-10-13T23:10:58.689Z,25.56
2022-10-13T23:13:30.132Z,25.56
2022-10-13T23:16:23.759Z,25.55
2022-10-13T23:19:01.133Z,25.53
2022-10-13T23:21:37.068Z,25.50
2022-10-13T23:24:07.558Z,25.49
2022-10-13T23:26:49.945Z,25.45
2022-10-13T23:29:17.668Z,25.46
2022-10-13T23:31:47.805Z,25.44
2022-10-13T23:34:20.370Z,25.37
2022-10-13T23:36:52.335Z,25.41
2022-10-13T23:39:22.940Z,25.38
2022-10-13T23:41:57.053Z,25.34
2022-10-13T23:44:29.782Z,25.33
2022-10-13T23:46:58.263Z,25.34
2022-10-13T23:49:31.592Z,25.36
2022-10-13T23:52:08.564Z,25.29
2022-10-13T23:54:41.779Z,25.25
2022-10-13T23:57:10.285Z,25.26
